sensor_id;sensor_type;location;lat;lon;timestamp;P1;durP1;ratioP1;P2;durP2;ratioP2
74293;SDS011;64044;59.904;10.738;2022-12-29T00:01:33;4.82;;;1.67;;
74293;SDS011;64044;59.904;10.738;2022-12-29T00:03:59;2.90;;;1.60;;
74293;SDS011;64044;59.904;10.738;2022-12-29T00:06:25;5.55;;;1.70;;
74293;SDS011;64044;59.904;10.738;2022-12-29T00:08:51;3.92;;;1.75;;
74293;SDS011;64044;59.904;10.738;2022-12-29T00:11:20;5.13;;;1.67;;
74293;SDS011;64044;59.904;10.738;2022-12-29T00:13:50;2.55;;;1.50;;
74293;SDS011;64044;59.904;10.738;2022-12-29T00:16:39;4.22;;;1.27;;
74293;SDS011;64044;59.904;10.738;2022-12-29T00:19:06;5.18;;;1.30;;
74293;SDS011;64044;59.904;10.738;2022-12-29T00:21:52;2.58;;;1.60;;
74293;SDS011;64044;59.904;10.738;2022-12-29T00:24:36;4.00;;;1.40;;
74293;SDS011;64044;59.904;10.738;2022-12-29T00:27:20;3.55;;;1.50;;
74293;SDS011;64044;59.904;10.738;2022-12-29T00:30:08;4.88;;;1.15;;
74293;SDS011;64044;59.904;10.738;2022-12-29T00:32:57;4.45;;;1.10;;
74293;SDS011;64044;59.904;10.738;2022-12-29T00:35:43;2.78;;;1.35;;
74293;SDS011;64044;59.904;10.738;2022-12-29T00:38:17;1.98;;;1.10;;
74293;SDS011;64044;59.904;10.738;2022-12-29T00:41:02;3.92;;;1.20;;
74293;SDS011;64044;59.904;10.738;2022-12-29T00:43:47;2.53;;;1.13;;
74293;SDS011;64044;59.904;10.738;2022-12-29T00:46:34;2.25;;;1.33;;
74293;SDS011;64044;59.904;10.738;2022-12-29T00:49:02;3.65;;;1.50;;
74293;SDS011;64044;59.904;10.738;2022-12-29T00:51:46;2.38;;;1.17;;
74293;SDS011;64044;59.904;10.738;2022-12-29T00:54:13;4.97;;;1.02;;
74293;SDS011;64044;59.904;10.738;2022-12-29T00:56:40;3.28;;;1.20;;
74293;SDS011;64044;59.904;10.738;2022-12-29T00:59:09;2.08;;;1.00;;
74293;SDS011;64044;59.904;10.738;2022-12-29T01:01:36;4.80;;;1.13;;
74293;SDS011;64044;59.904;10.738;2022-12-29T01:04:02;4.10;;;1.70;;
74293;SDS011;64044;59.904;10.738;2022-12-29T01:06:29;2.03;;;1.40;;
74293;SDS011;64044;59.904;10.738;2022-12-29T01:08:55;3.78;;;1.25;;
74293;SDS011;64044;59.904;10.738;2022-12-29T01:11:39;6.22;;;1.23;;
74293;SDS011;64044;59.904;10.738;2022-12-29T01:14:06;4.25;;;1.50;;
74293;SDS011;64044;59.904;10.738;2022-12-29T01:16:31;4.75;;;1.30;;
74293;SDS011;64044;59.904;10.738;2022-12-29T01:18:58;3.03;;;1.40;;
74293;SDS011;64044;59.904;10.738;2022-12-29T01:21:29;5.30;;;1.42;;
74293;SDS011;64044;59.904;10.738;2022-12-29T01:23:55;4.22;;;1.38;;
74293;SDS011;64044;59.904;10.738;2022-12-29T01:26:21;3.78;;;1.50;;
74293;SDS011;64044;59.904;10.738;2022-12-29T01:28:46;4.93;;;1.83;;
74293;SDS011;64044;59.904;10.738;2022-12-29T01:31:13;3.60;;;1.30;;
74293;SDS011;64044;59.904;10.738;2022-12-29T01:33:40;4.03;;;1.40;;
74293;SDS011;64044;59.904;10.738;2022-12-29T01:36:07;4.20;;;1.40;;
74293;SDS011;64044;59.904;10.738;2022-12-29T01:38:37;3.38;;;1.20;;
74293;SDS011;64044;59.904;10.738;2022-12-29T01:41:04;1.95;;;1.20;;
74293;SDS011;64044;59.904;10.738;2022-12-29T01:46:55;3.45;;;1.30;;
74293;SDS011;64044;59.904;10.738;2022-12-29T01:51:32;2.17;;;1.08;;
74293;SDS011;64044;59.904;10.738;2022-12-29T01:54:15;2.22;;;1.25;;
74293;SDS011;64044;59.904;10.738;2022-12-29T01:56:47;4.38;;;1.95;;
74293;SDS011;64044;59.904;10.738;2022-12-29T01:59:18;2.92;;;1.60;;
74293;SDS011;64044;59.904;10.738;2022-12-29T02:01:47;2.65;;;1.17;;
74293;SDS011;64044;59.904;10.738;2022-12-29T02:04:13;3.42;;;1.33;;
74293;SDS011;64044;59.904;10.738;2022-12-29T02:06:41;2.45;;;1.20;;
74293;SDS011;64044;59.904;10.738;2022-12-29T02:09:18;2.35;;;1.35;;
74293;SDS011;64044;59.904;10.738;2022-12-29T02:11:44;2.85;;;1.10;;
74293;SDS011;64044;59.904;10.738;2022-12-29T02:14:11;2.85;;;1.30;;
74293;SDS011;64044;59.904;10.738;2022-12-29T02:42:02;2.10;;;0.80;;
74293;SDS011;64044;59.904;10.738;2022-12-29T02:47:36;2.13;;;1.17;;
74293;SDS011;64044;59.904;10.738;2022-12-29T02:52:58;4.10;;;1.38;;
74293;SDS011;64044;59.904;10.738;2022-12-29T02:55:32;2.65;;;0.93;;
74293;SDS011;64044;59.904;10.738;2022-12-29T03:11:08;1.08;;;0.80;;
74293;SDS011;64044;59.904;10.738;2022-12-29T03:13:59;2.45;;;1.10;;
74293;SDS011;64044;59.904;10.738;2022-12-29T03:17:01;2.08;;;0.80;;
74293;SDS011;64044;59.904;10.738;2022-12-29T03:19:36;2.20;;;0.75;;
74293;SDS011;64044;59.904;10.738;2022-12-29T03:24:52;1.52;;;0.82;;
74293;SDS011;64044;59.904;10.738;2022-12-29T03:27:32;1.80;;;0.80;;
74293;SDS011;64044;59.904;10.738;2022-12-29T03:30:05;3.35;;;1.08;;
74293;SDS011;64044;59.904;10.738;2022-12-29T03:32:33;1.83;;;0.60;;
74293;SDS011;64044;59.904;10.738;2022-12-29T03:35:04;1.88;;;0.98;;
74293;SDS011;64044;59.904;10.738;2022-12-29T03:37:45;4.53;;;0.60;;
74293;SDS011;64044;59.904;10.738;2022-12-29T03:40:32;2.83;;;0.63;;
74293;SDS011;64044;59.904;10.738;2022-12-29T03:42:59;1.30;;;0.80;;
74293;SDS011;64044;59.904;10.738;2022-12-29T03:45:27;2.35;;;1.00;;
74293;SDS011;64044;59.904;10.738;2022-12-29T03:47:53;0.73;;;0.68;;
74293;SDS011;64044;59.904;10.738;2022-12-29T03:50:19;1.38;;;0.63;;
74293;SDS011;64044;59.904;10.738;2022-12-29T03:52:45;1.58;;;0.80;;
74293;SDS011;64044;59.904;10.738;2022-12-29T03:55:10;1.38;;;0.73;;
74293;SDS011;64044;59.904;10.738;2022-12-29T03:57:36;2.38;;;1.02;;
74293;SDS011;64044;59.904;10.738;2022-12-29T04:00:03;1.27;;;0.75;;
74293;SDS011;64044;59.904;10.738;2022-12-29T04:02:30;1.52;;;0.50;;
74293;SDS011;64044;59.904;10.738;2022-12-29T04:04:56;0.82;;;0.60;;
74293;SDS011;64044;59.904;10.738;2022-12-29T04:07:21;2.17;;;0.63;;
74293;SDS011;64044;59.904;10.738;2022-12-29T04:09:47;1.90;;;0.75;;
74293;SDS011;64044;59.904;10.738;2022-12-29T04:12:13;1.13;;;0.90;;
74293;SDS011;64044;59.904;10.738;2022-12-29T04:14:39;1.77;;;0.80;;
74293;SDS011;64044;59.904;10.738;2022-12-29T04:17:05;0.50;;;0.50;;
74293;SDS011;64044;59.904;10.738;2022-12-29T04:19:31;2.17;;;0.60;;
74293;SDS011;64044;59.904;10.738;2022-12-29T04:21:57;2.65;;;0.80;;
74293;SDS011;64044;59.904;10.738;2022-12-29T04:24:23;1.30;;;0.68;;
74293;SDS011;64044;59.904;10.738;2022-12-29T04:26:48;1.65;;;0.90;;
74293;SDS011;64044;59.904;10.738;2022-12-29T04:29:14;3.22;;;0.80;;
74293;SDS011;64044;59.904;10.738;2022-12-29T04:31:40;1.85;;;0.80;;
74293;SDS011;64044;59.904;10.738;2022-12-29T04:34:05;2.50;;;0.50;;
74293;SDS011;64044;59.904;10.738;2022-12-29T04:36:31;1.70;;;1.13;;
74293;SDS011;64044;59.904;10.738;2022-12-29T04:38:57;1.98;;;0.75;;
74293;SDS011;64044;59.904;10.738;2022-12-29T04:41:23;2.22;;;0.90;;
74293;SDS011;64044;59.904;10.738;2022-12-29T04:43:49;1.38;;;0.43;;
74293;SDS011;64044;59.904;10.738;2022-12-29T04:46:14;0.30;;;0.30;;
74293;SDS011;64044;59.904;10.738;2022-12-29T04:48:41;1.23;;;0.50;;
74293;SDS011;64044;59.904;10.738;2022-12-29T04:51:06;0.93;;;0.50;;
74293;SDS011;64044;59.904;10.738;2022-12-29T04:53:32;1.45;;;0.52;;
74293;SDS011;64044;59.904;10.738;2022-12-29T04:55:58;0.65;;;0.40;;
74293;SDS011;64044;59.904;10.738;2022-12-29T04:58:23;2.28;;;0.70;;
74293;SDS011;64044;59.904;10.738;2022-12-29T05:00:50;0.90;;;0.38;;
74293;SDS011;64044;59.904;10.738;2022-12-29T05:03:16;0.88;;;0.75;;
74293;SDS011;64044;59.904;10.738;2022-12-29T05:05:42;0.85;;;0.65;;
74293;SDS011;64044;59.904;10.738;2022-12-29T05:08:08;0.57;;;0.40;;
74293;SDS011;64044;59.904;10.738;2022-12-29T05:10:34;0.95;;;0.47;;
74293;SDS011;64044;59.904;10.738;2022-12-29T05:12:59;2.00;;;0.55;;
74293;SDS011;64044;59.904;10.738;2022-12-29T05:15:25;2.30;;;0.32;;
74293;SDS011;64044;59.904;10.738;2022-12-29T05:17:51;1.65;;;0.55;;
74293;SDS011;64044;59.904;10.738;2022-12-29T05:20:17;0.75;;;0.50;;
74293;SDS011;64044;59.904;10.738;2022-12-29T05:22:43;1.42;;;0.43;;
74293;SDS011;64044;59.904;10.738;2022-12-29T05:25:09;2.05;;;0.68;;
74293;SDS011;64044;59.904;10.738;2022-12-29T05:27:34;2.70;;;0.52;;
74293;SDS011;64044;59.904;10.738;2022-12-29T05:30:00;2.95;;;0.70;;
74293;SDS011;64044;59.904;10.738;2022-12-29T05:32:26;1.52;;;0.70;;
74293;SDS011;64044;59.904;10.738;2022-12-29T05:34:51;3.42;;;0.70;;
74293;SDS011;64044;59.904;10.738;2022-12-29T05:37:17;0.88;;;0.65;;
74293;SDS011;64044;59.904;10.738;2022-12-29T05:39:43;1.13;;;0.55;;
74293;SDS011;64044;59.904;10.738;2022-12-29T05:44:59;0.65;;;0.50;;
74293;SDS011;64044;59.904;10.738;2022-12-29T05:47:25;1.42;;;0.68;;
74293;SDS011;64044;59.904;10.738;2022-12-29T05:49:51;1.48;;;0.70;;
74293;SDS011;64044;59.904;10.738;2022-12-29T05:52:17;3.35;;;1.35;;
74293;SDS011;64044;59.904;10.738;2022-12-29T05:54:42;2.30;;;0.65;;
74293;SDS011;64044;59.904;10.738;2022-12-29T05:57:08;1.23;;;0.63;;
74293;SDS011;64044;59.904;10.738;2022-12-29T05:59:34;0.80;;;0.60;;
74293;SDS011;64044;59.904;10.738;2022-12-29T06:02:00;1.17;;;0.50;;
74293;SDS011;64044;59.904;10.738;2022-12-29T06:06:57;1.70;;;0.65;;
74293;SDS011;64044;59.904;10.738;2022-12-29T06:09:23;6.07;;;1.30;;
74293;SDS011;64044;59.904;10.738;2022-12-29T06:11:49;2.33;;;1.00;;
74293;SDS011;64044;59.904;10.738;2022-12-29T06:14:14;0.82;;;0.68;;
74293;SDS011;64044;59.904;10.738;2022-12-29T06:16:40;0.70;;;0.45;;
74293;SDS011;64044;59.904;10.738;2022-12-29T06:19:06;0.98;;;0.50;;
74293;SDS011;64044;59.904;10.738;2022-12-29T06:21:32;1.20;;;0.40;;
74293;SDS011;64044;59.904;10.738;2022-12-29T06:23:58;0.55;;;0.30;;
74293;SDS011;64044;59.904;10.738;2022-12-29T06:26:24;0.30;;;0.30;;
74293;SDS011;64044;59.904;10.738;2022-12-29T06:28:49;0.50;;;0.30;;
74293;SDS011;64044;59.904;10.738;2022-12-29T06:31:15;0.57;;;0.57;;
74293;SDS011;64044;59.904;10.738;2022-12-29T06:33:41;0.43;;;0.40;;
74293;SDS011;64044;59.904;10.738;2022-12-29T06:36:06;0.60;;;0.45;;
74293;SDS011;64044;59.904;10.738;2022-12-29T06:38:32;0.63;;;0.40;;
74293;SDS011;64044;59.904;10.738;2022-12-29T06:41:00;0.60;;;0.40;;
74293;SDS011;64044;59.904;10.738;2022-12-29T06:43:25;0.60;;;0.40;;
74293;SDS011;64044;59.904;10.738;2022-12-29T06:45:51;1.35;;;0.50;;
74293;SDS011;64044;59.904;10.738;2022-12-29T06:48:17;1.95;;;0.82;;
74293;SDS011;64044;59.904;10.738;2022-12-29T06:50:42;3.42;;;0.73;;
74293;SDS011;64044;59.904;10.738;2022-12-29T06:53:08;3.20;;;0.70;;
74293;SDS011;64044;59.904;10.738;2022-12-29T06:55:34;0.95;;;0.50;;
74293;SDS011;64044;59.904;10.738;2022-12-29T06:57:59;0.75;;;0.70;;
74293;SDS011;64044;59.904;10.738;2022-12-29T07:00:26;2.28;;;0.40;;
74293;SDS011;64044;59.904;10.738;2022-12-29T07:02:51;0.28;;;0.28;;
74293;SDS011;64044;59.904;10.738;2022-12-29T07:05:19;1.70;;;0.50;;
74293;SDS011;64044;59.904;10.738;2022-12-29T07:07:45;3.13;;;0.63;;
74293;SDS011;64044;59.904;10.738;2022-12-29T07:10:10;0.82;;;0.63;;
74293;SDS011;64044;59.904;10.738;2022-12-29T07:12:36;1.02;;;0.80;;
74293;SDS011;64044;59.904;10.738;2022-12-29T07:15:02;0.30;;;0.20;;
74293;SDS011;64044;59.904;10.738;2022-12-29T07:17:28;1.00;;;0.60;;
74293;SDS011;64044;59.904;10.738;2022-12-29T07:19:54;1.92;;;0.75;;
74293;SDS011;64044;59.904;10.738;2022-12-29T07:22:19;3.13;;;0.68;;
74293;SDS011;64044;59.904;10.738;2022-12-29T07:24:45;1.15;;;0.60;;
74293;SDS011;64044;59.904;10.738;2022-12-29T07:27:11;1.40;;;0.80;;
74293;SDS011;64044;59.904;10.738;2022-12-29T07:29:37;1.63;;;0.70;;
74293;SDS011;64044;59.904;10.738;2022-12-29T07:32:03;1.42;;;0.95;;
74293;SDS011;64044;59.904;10.738;2022-12-29T07:34:29;0.93;;;0.82;;
74293;SDS011;64044;59.904;10.738;2022-12-29T07:36:55;0.82;;;0.50;;
74293;SDS011;64044;59.904;10.738;2022-12-29T07:39:20;0.88;;;0.68;;
74293;SDS011;64044;59.904;10.738;2022-12-29T07:41:46;2.92;;;0.77;;
74293;SDS011;64044;59.904;10.738;2022-12-29T07:44:12;0.85;;;0.70;;
74293;SDS011;64044;59.904;10.738;2022-12-29T07:46:37;1.52;;;0.40;;
74293;SDS011;64044;59.904;10.738;2022-12-29T07:49:03;0.60;;;0.40;;
74293;SDS011;64044;59.904;10.738;2022-12-29T07:51:29;2.42;;;0.63;;
74293;SDS011;64044;59.904;10.738;2022-12-29T07:53:55;2.08;;;0.60;;
74293;SDS011;64044;59.904;10.738;2022-12-29T07:56:20;1.30;;;0.50;;
74293;SDS011;64044;59.904;10.738;2022-12-29T07:58:46;0.68;;;0.68;;
74293;SDS011;64044;59.904;10.738;2022-12-29T08:01:12;1.50;;;0.55;;
74293;SDS011;64044;59.904;10.738;2022-12-29T08:03:37;6.90;;;1.50;;
74293;SDS011;64044;59.904;10.738;2022-12-29T08:06:08;1.15;;;0.43;;
74293;SDS011;64044;59.904;10.738;2022-12-29T08:08:34;0.63;;;0.45;;
74293;SDS011;64044;59.904;10.738;2022-12-29T08:11:00;0.50;;;0.50;;
74293;SDS011;64044;59.904;10.738;2022-12-29T08:13:26;0.40;;;0.40;;
74293;SDS011;64044;59.904;10.738;2022-12-29T08:15:51;3.10;;;0.38;;
74293;SDS011;64044;59.904;10.738;2022-12-29T08:18:17;1.42;;;0.35;;
74293;SDS011;64044;59.904;10.738;2022-12-29T08:20:43;1.15;;;0.80;;
74293;SDS011;64044;59.904;10.738;2022-12-29T08:23:08;1.25;;;0.40;;
74293;SDS011;64044;59.904;10.738;2022-12-29T08:25:35;2.00;;;0.85;;
74293;SDS011;64044;59.904;10.738;2022-12-29T08:28:01;1.38;;;0.75;;
74293;SDS011;64044;59.904;10.738;2022-12-29T08:30:27;1.20;;;0.70;;
74293;SDS011;64044;59.904;10.738;2022-12-29T08:32:52;2.50;;;0.70;;
74293;SDS011;64044;59.904;10.738;2022-12-29T08:35:18;3.75;;;0.80;;
74293;SDS011;64044;59.904;10.738;2022-12-29T08:37:44;1.10;;;0.70;;
74293;SDS011;64044;59.904;10.738;2022-12-29T08:40:10;5.88;;;0.95;;
74293;SDS011;64044;59.904;10.738;2022-12-29T08:42:35;1.73;;;0.73;;
74293;SDS011;64044;59.904;10.738;2022-12-29T08:45:01;3.50;;;0.98;;
74293;SDS011;64044;59.904;10.738;2022-12-29T08:47:27;1.80;;;1.00;;
74293;SDS011;64044;59.904;10.738;2022-12-29T08:49:53;2.30;;;0.93;;
74293;SDS011;64044;59.904;10.738;2022-12-29T08:52:18;2.17;;;0.80;;
74293;SDS011;64044;59.904;10.738;2022-12-29T08:54:44;1.02;;;0.70;;
74293;SDS011;64044;59.904;10.738;2022-12-29T08:57:10;1.08;;;0.80;;
74293;SDS011;64044;59.904;10.738;2022-12-29T08:59:36;1.55;;;0.70;;
74293;SDS011;64044;59.904;10.738;2022-12-29T09:02:01;1.25;;;0.73;;
74293;SDS011;64044;59.904;10.738;2022-12-29T09:04:27;3.63;;;0.75;;
74293;SDS011;64044;59.904;10.738;2022-12-29T09:06:53;1.10;;;0.70;;
74293;SDS011;64044;59.904;10.738;2022-12-29T09:09:19;1.15;;;0.68;;
74293;SDS011;64044;59.904;10.738;2022-12-29T09:11:46;2.33;;;0.82;;
74293;SDS011;64044;59.904;10.738;2022-12-29T09:14:12;1.95;;;0.95;;
74293;SDS011;64044;59.904;10.738;2022-12-29T09:16:38;2.10;;;1.10;;
74293;SDS011;64044;59.904;10.738;2022-12-29T09:19:04;2.30;;;1.00;;
74293;SDS011;64044;59.904;10.738;2022-12-29T09:21:30;6.40;;;0.90;;
74293;SDS011;64044;59.904;10.738;2022-12-29T09:23:56;0.77;;;0.55;;
74293;SDS011;64044;59.904;10.738;2022-12-29T09:26:22;0.77;;;0.50;;
74293;SDS011;64044;59.904;10.738;2022-12-29T09:28:48;1.40;;;0.60;;
74293;SDS011;64044;59.904;10.738;2022-12-29T09:31:13;1.70;;;0.70;;
74293;SDS011;64044;59.904;10.738;2022-12-29T09:33:39;1.00;;;0.70;;
74293;SDS011;64044;59.904;10.738;2022-12-29T09:36:05;2.33;;;0.70;;
74293;SDS011;64044;59.904;10.738;2022-12-29T09:38:32;1.67;;;1.00;;
74293;SDS011;64044;59.904;10.738;2022-12-29T09:46:28;2.08;;;0.77;;
74293;SDS011;64044;59.904;10.738;2022-12-29T09:51:47;3.53;;;1.00;;
74293;SDS011;64044;59.904;10.738;2022-12-29T09:57:00;1.33;;;0.98;;
74293;SDS011;64044;59.904;10.738;2022-12-29T09:59:27;1.30;;;0.65;;
74293;SDS011;64044;59.904;10.738;2022-12-29T10:02:51;3.33;;;1.02;;
74293;SDS011;64044;59.904;10.738;2022-12-29T10:04:57;3.08;;;1.02;;
74293;SDS011;64044;59.904;10.738;2022-12-29T10:10:35;1.83;;;0.95;;
74293;SDS011;64044;59.904;10.738;2022-12-29T10:23:55;1.45;;;0.80;;
74293;SDS011;64044;59.904;10.738;2022-12-29T10:26:24;3.13;;;1.00;;
74293;SDS011;64044;59.904;10.738;2022-12-29T10:29:04;2.17;;;0.82;;
74293;SDS011;64044;59.904;10.738;2022-12-29T10:31:36;2.15;;;1.13;;
74293;SDS011;64044;59.904;10.738;2022-12-29T10:34:10;4.55;;;1.75;;
74293;SDS011;64044;59.904;10.738;2022-12-29T10:37:02;7.55;;;1.83;;
74293;SDS011;64044;59.904;10.738;2022-12-29T10:39:37;3.90;;;1.50;;
74293;SDS011;64044;59.904;10.738;2022-12-29T10:42:13;4.93;;;2.08;;
74293;SDS011;64044;59.904;10.738;2022-12-29T10:44:51;4.90;;;2.03;;
74293;SDS011;64044;59.904;10.738;2022-12-29T10:47:19;2.45;;;1.00;;
74293;SDS011;64044;59.904;10.738;2022-12-29T10:49:51;3.95;;;1.40;;
74293;SDS011;64044;59.904;10.738;2022-12-29T10:52:18;4.32;;;1.23;;
74293;SDS011;64044;59.904;10.738;2022-12-29T10:54:49;2.17;;;1.23;;
74293;SDS011;64044;59.904;10.738;2022-12-29T10:57:39;3.33;;;1.65;;
74293;SDS011;64044;59.904;10.738;2022-12-29T11:00:16;5.15;;;1.48;;
74293;SDS011;64044;59.904;10.738;2022-12-29T11:05:46;6.60;;;1.65;;
74293;SDS011;64044;59.904;10.738;2022-12-29T11:11:00;2.75;;;1.30;;
74293;SDS011;64044;59.904;10.738;2022-12-29T11:13:28;4.50;;;1.85;;
74293;SDS011;64044;59.904;10.738;2022-12-29T11:15:55;4.28;;;1.80;;
74293;SDS011;64044;59.904;10.738;2022-12-29T11:18:22;4.68;;;1.92;;
74293;SDS011;64044;59.904;10.738;2022-12-29T11:20:54;3.10;;;1.70;;
74293;SDS011;64044;59.904;10.738;2022-12-29T11:23:27;3.88;;;2.00;;
74293;SDS011;64044;59.904;10.738;2022-12-29T11:32:17;7.25;;;3.10;;
74293;SDS011;64044;59.904;10.738;2022-12-29T11:37:00;7.88;;;3.92;;
74293;SDS011;64044;59.904;10.738;2022-12-29T11:42:03;7.20;;;3.15;;
74293;SDS011;64044;59.904;10.738;2022-12-29T11:44:35;5.95;;;2.92;;
74293;SDS011;64044;59.904;10.738;2022-12-29T11:47:06;7.78;;;3.42;;
74293;SDS011;64044;59.904;10.738;2022-12-29T11:49:37;6.72;;;2.90;;
74293;SDS011;64044;59.904;10.738;2022-12-29T11:52:03;10.27;;;3.72;;
74293;SDS011;64044;59.904;10.738;2022-12-29T11:54:31;7.00;;;2.95;;
74293;SDS011;64044;59.904;10.738;2022-12-29T11:57:08;6.65;;;3.05;;
74293;SDS011;64044;59.904;10.738;2022-12-29T11:59:40;10.18;;;3.53;;
74293;SDS011;64044;59.904;10.738;2022-12-29T12:07:40;6.65;;;2.78;;
74293;SDS011;64044;59.904;10.738;2022-12-29T12:10:16;11.45;;;4.07;;
74293;SDS011;64044;59.904;10.738;2022-12-29T12:12:49;21.48;;;8.23;;
74293;SDS011;64044;59.904;10.738;2022-12-29T12:15:49;8.07;;;3.53;;
74293;SDS011;64044;59.904;10.738;2022-12-29T12:19:08;25.70;;;8.02;;
74293;SDS011;64044;59.904;10.738;2022-12-29T12:21:41;26.60;;;8.82;;
74293;SDS011;64044;59.904;10.738;2022-12-29T12:24:13;10.23;;;4.45;;
74293;SDS011;64044;59.904;10.738;2022-12-29T12:35:16;8.45;;;3.15;;
74293;SDS011;64044;59.904;10.738;2022-12-29T12:55:30;1.05;;;0.77;;
74293;SDS011;64044;59.904;10.738;2022-12-29T13:18:02;1.83;;;0.70;;
74293;SDS011;64044;59.904;10.738;2022-12-29T13:20:36;1.48;;;1.00;;
74293;SDS011;64044;59.904;10.738;2022-12-29T13:35:16;0.77;;;0.60;;
74293;SDS011;64044;59.904;10.738;2022-12-29T13:38:07;1.33;;;0.93;;
74293;SDS011;64044;59.904;10.738;2022-12-29T13:40:51;1.17;;;0.88;;
74293;SDS011;64044;59.904;10.738;2022-12-29T13:43:20;0.93;;;0.88;;
74293;SDS011;64044;59.904;10.738;2022-12-29T13:45:50;1.75;;;1.30;;
74293;SDS011;64044;59.904;10.738;2022-12-29T13:48:24;3.17;;;1.70;;
74293;SDS011;64044;59.904;10.738;2022-12-29T13:51:15;4.20;;;1.58;;
74293;SDS011;64044;59.904;10.738;2022-12-29T13:53:46;3.15;;;1.83;;
74293;SDS011;64044;59.904;10.738;2022-12-29T13:56:23;1.70;;;1.45;;
74293;SDS011;64044;59.904;10.738;2022-12-29T14:04:59;3.95;;;2.65;;
74293;SDS011;64044;59.904;10.738;2022-12-29T14:07:26;5.97;;;3.17;;
74293;SDS011;64044;59.904;10.738;2022-12-29T14:09:54;4.80;;;2.95;;
74293;SDS011;64044;59.904;10.738;2022-12-29T14:12:29;5.70;;;3.28;;
74293;SDS011;64044;59.904;10.738;2022-12-29T14:15:05;3.90;;;2.42;;
74293;SDS011;64044;59.904;10.738;2022-12-29T14:17:34;4.57;;;3.30;;
74293;SDS011;64044;59.904;10.738;2022-12-29T14:20:01;4.45;;;2.72;;
74293;SDS011;64044;59.904;10.738;2022-12-29T14:22:29;3.88;;;2.70;;
74293;SDS011;64044;59.904;10.738;2022-12-29T14:24:54;4.30;;;2.90;;
74293;SDS011;64044;59.904;10.738;2022-12-29T14:29:47;5.28;;;3.55;;
74293;SDS011;64044;59.904;10.738;2022-12-29T14:40:12;2.30;;;1.83;;
74293;SDS011;64044;59.904;10.738;2022-12-29T14:47:46;4.75;;;2.10;;
74293;SDS011;64044;59.904;10.738;2022-12-29T14:52:45;2.65;;;1.95;;
74293;SDS011;64044;59.904;10.738;2022-12-29T14:57:41;2.92;;;1.60;;
74293;SDS011;64044;59.904;10.738;2022-12-29T15:00:21;2.08;;;1.50;;
74293;SDS011;64044;59.904;10.738;2022-12-29T15:02:49;2.00;;;1.48;;
74293;SDS011;64044;59.904;10.738;2022-12-29T15:05:29;2.50;;;1.90;;
74293;SDS011;64044;59.904;10.738;2022-12-29T15:07:57;2.65;;;1.63;;
74293;SDS011;64044;59.904;10.738;2022-12-29T15:10:24;2.60;;;1.77;;
74293;SDS011;64044;59.904;10.738;2022-12-29T15:13:00;3.33;;;1.98;;
74293;SDS011;64044;59.904;10.738;2022-12-29T15:15:35;5.30;;;2.50;;
74293;SDS011;64044;59.904;10.738;2022-12-29T15:21:02;1.70;;;1.40;;
74293;SDS011;64044;59.904;10.738;2022-12-29T15:23:31;2.25;;;1.55;;
74293;SDS011;64044;59.904;10.738;2022-12-29T15:28:26;4.90;;;1.20;;
74293;SDS011;64044;59.904;10.738;2022-12-29T15:31:01;1.42;;;1.23;;
74293;SDS011;64044;59.904;10.738;2022-12-29T15:33:29;1.80;;;1.42;;
74293;SDS011;64044;59.904;10.738;2022-12-29T15:35:56;2.40;;;1.58;;
74293;SDS011;64044;59.904;10.738;2022-12-29T15:38:28;4.32;;;1.80;;
74293;SDS011;64044;59.904;10.738;2022-12-29T15:40:56;2.60;;;1.70;;
74293;SDS011;64044;59.904;10.738;2022-12-29T15:43:30;3.33;;;1.52;;
74293;SDS011;64044;59.904;10.738;2022-12-29T15:46:17;2.83;;;1.50;;
74293;SDS011;64044;59.904;10.738;2022-12-29T15:48:43;4.38;;;2.03;;
74293;SDS011;64044;59.904;10.738;2022-12-29T15:51:51;5.03;;;2.35;;
74293;SDS011;64044;59.904;10.738;2022-12-29T15:54:04;5.93;;;2.38;;
74293;SDS011;64044;59.904;10.738;2022-12-29T15:56:31;2.72;;;1.75;;
74293;SDS011;64044;59.904;10.738;2022-12-29T15:58:58;2.20;;;1.70;;
74293;SDS011;64044;59.904;10.738;2022-12-29T16:01:29;2.38;;;1.55;;
74293;SDS011;64044;59.904;10.738;2022-12-29T16:03:57;3.85;;;1.92;;
74293;SDS011;64044;59.904;10.738;2022-12-29T16:11:42;4.95;;;2.90;;
74293;SDS011;64044;59.904;10.738;2022-12-29T16:17:17;3.58;;;2.28;;
74293;SDS011;64044;59.904;10.738;2022-12-29T16:25:40;4.15;;;2.20;;
74293;SDS011;64044;59.904;10.738;2022-12-29T16:28:20;3.33;;;2.22;;
74293;SDS011;64044;59.904;10.738;2022-12-29T16:36:23;2.00;;;1.50;;
74293;SDS011;64044;59.904;10.738;2022-12-29T16:41:49;3.17;;;1.00;;
74293;SDS011;64044;59.904;10.738;2022-12-29T16:44:20;3.28;;;1.23;;
74293;SDS011;64044;59.904;10.738;2022-12-29T16:49:38;4.72;;;1.58;;
74293;SDS011;64044;59.904;10.738;2022-12-29T16:52:25;3.55;;;1.67;;
74293;SDS011;64044;59.904;10.738;2022-12-29T16:54:58;6.43;;;2.30;;
74293;SDS011;64044;59.904;10.738;2022-12-29T16:57:30;4.38;;;1.60;;
74293;SDS011;64044;59.904;10.738;2022-12-29T17:00:03;5.50;;;2.60;;
74293;SDS011;64044;59.904;10.738;2022-12-29T17:02:31;4.93;;;2.67;;
74293;SDS011;64044;59.904;10.738;2022-12-29T17:04:58;3.90;;;2.40;;
74293;SDS011;64044;59.904;10.738;2022-12-29T17:07:25;6.15;;;3.10;;
74293;SDS011;64044;59.904;10.738;2022-12-29T17:09:52;4.55;;;2.85;;
74293;SDS011;64044;59.904;10.738;2022-12-29T17:12:23;10.98;;;3.80;;
74293;SDS011;64044;59.904;10.738;2022-12-29T17:17:46;10.00;;;3.92;;
74293;SDS011;64044;59.904;10.738;2022-12-29T17:20:14;18.95;;;5.88;;
74293;SDS011;64044;59.904;10.738;2022-12-29T17:22:44;13.20;;;4.17;;
74293;SDS011;64044;59.904;10.738;2022-12-29T17:25:15;14.82;;;4.93;;
74293;SDS011;64044;59.904;10.738;2022-12-29T17:27:43;11.20;;;4.43;;
74293;SDS011;64044;59.904;10.738;2022-12-29T17:30:13;9.23;;;4.25;;
74293;SDS011;64044;59.904;10.738;2022-12-29T17:35:17;11.82;;;3.95;;
74293;SDS011;64044;59.904;10.738;2022-12-29T17:37:44;10.75;;;4.07;;
74293;SDS011;64044;59.904;10.738;2022-12-29T17:40:12;7.68;;;4.15;;
74293;SDS011;64044;59.904;10.738;2022-12-29T17:42:41;13.10;;;5.00;;
74293;SDS011;64044;59.904;10.738;2022-12-29T17:45:16;15.55;;;4.95;;
74293;SDS011;64044;59.904;10.738;2022-12-29T17:47:44;17.77;;;6.45;;
74293;SDS011;64044;59.904;10.738;2022-12-29T17:50:11;13.45;;;5.53;;
74293;SDS011;64044;59.904;10.738;2022-12-29T17:52:42;16.40;;;5.10;;
74293;SDS011;64044;59.904;10.738;2022-12-29T17:55:14;13.48;;;4.93;;
74293;SDS011;64044;59.904;10.738;2022-12-29T18:00:13;13.68;;;6.50;;
74293;SDS011;64044;59.904;10.738;2022-12-29T18:02:42;12.07;;;5.10;;
74293;SDS011;64044;59.904;10.738;2022-12-29T18:05:13;15.75;;;6.70;;
74293;SDS011;64044;59.904;10.738;2022-12-29T18:07:42;13.57;;;4.90;;
74293;SDS011;64044;59.904;10.738;2022-12-29T18:10:08;16.45;;;6.47;;
74293;SDS011;64044;59.904;10.738;2022-12-29T18:12:38;17.27;;;5.85;;
74293;SDS011;64044;59.904;10.738;2022-12-29T18:15:06;17.75;;;5.72;;
74293;SDS011;64044;59.904;10.738;2022-12-29T18:17:40;24.48;;;6.00;;
74293;SDS011;64044;59.904;10.738;2022-12-29T18:20:06;12.98;;;5.10;;
74293;SDS011;64044;59.904;10.738;2022-12-29T18:22:31;13.55;;;5.72;;
74293;SDS011;64044;59.904;10.738;2022-12-29T18:24:57;12.85;;;5.30;;
74293;SDS011;64044;59.904;10.738;2022-12-29T18:27:23;17.42;;;6.22;;
74293;SDS011;64044;59.904;10.738;2022-12-29T18:29:50;23.90;;;5.93;;
74293;SDS011;64044;59.904;10.738;2022-12-29T18:32:16;22.02;;;8.75;;
74293;SDS011;64044;59.904;10.738;2022-12-29T18:34:42;16.38;;;5.57;;
74293;SDS011;64044;59.904;10.738;2022-12-29T18:37:08;15.93;;;5.20;;